Arnold, North Carolina
Current Conditions -  °F | °C
As of 6:55 PM on Monday 22 Dec 2014 (Local Time) from KEXX Reporting Station
Haze Haze  
Wind Chill: 36°   Ceiling: 400
Heat Index: 36°   Visibility: 3mi
Dew Point: 35°   Wind: 3mph
Humidity: 97%   Direction: 40°NE
Pressure: 30.06"   Gusts: NA
Location:  35.7974°N, 80.2541°W
Report Text: KEXX 222355Z AUTO 04003KT 3SM BR OVC004 02/02 A3006 RMK AO2 60001 T00210016 10026 20021
Loading
Personal Weather Stations






























Interactive Weather Map New forecast layout! Learn more

10-Day Weather Forecast

Advertisements
Track Severe Weather on mobile